createdAt,value
2024-03-19T00:01:12.085Z,10.00
2024-03-19T00:03:48.783Z,14.50
2024-03-19T00:06:19.165Z,16.30
2024-03-19T00:08:49.565Z,15.80
2024-03-19T00:11:20.068Z,14.80
2024-03-19T00:13:50.386Z,16.30
2024-03-19T00:16:21.036Z,18.80
2024-03-19T00:18:51.512Z,17.50
2024-03-19T00:21:22.236Z,13.90
2024-03-19T00:23:53.049Z,14.00
2024-03-19T00:26:23.491Z,14.00
2024-03-19T00:28:54.156Z,13.20
2024-03-19T00:31:24.715Z,12.30
2024-03-19T00:33:55.152Z,13.20
2024-03-19T00:36:25.586Z,12.10
2024-03-19T00:38:55.994Z,13.30
2024-03-19T00:41:26.293Z,14.10
2024-03-19T00:43:56.725Z,12.40
2024-03-19T00:46:27.163Z,12.50
2024-03-19T00:48:57.576Z,12.20
2024-03-19T00:51:28.528Z,11.10
2024-03-19T00:53:58.962Z,11.50
2024-03-19T00:56:29.479Z,10.70
2024-03-19T00:58:59.823Z,11.10
2024-03-19T01:01:30.210Z,12.50
2024-03-19T01:04:00.703Z,11.90
2024-03-19T01:06:31.063Z,11.30
2024-03-19T01:09:01.567Z,14.30
2024-03-19T01:11:32.226Z,14.30
2024-03-19T01:14:02.778Z,19.50
2024-03-19T01:16:33.351Z,19.20
2024-03-19T01:19:03.774Z,20.10
2024-03-19T01:21:34.205Z,17.70
2024-03-19T01:24:05.496Z,15.50
2024-03-19T01:26:36.063Z,13.80
2024-03-19T01:29:06.377Z,12.20
2024-03-19T01:31:37.320Z,12.30
2024-03-19T01:34:07.901Z,10.70
2024-03-19T01:36:38.189Z,11.00
2024-03-19T01:39:08.587Z,9.50
2024-03-19T01:41:39.794Z,10.40
2024-03-19T01:44:15.689Z,10.40
2024-03-19T01:46:45.970Z,10.20
2024-03-19T01:49:17.162Z,12.70
2024-03-19T01:51:49.122Z,12.10
2024-03-19T01:54:20.623Z,11.20
2024-03-19T01:56:51.134Z,9.40
2024-03-19T01:59:21.791Z,8.30
2024-03-19T02:01:52.317Z,8.10
2024-03-19T02:04:22.994Z,7.50
2024-03-19T02:06:53.373Z,8.50
2024-03-19T02:09:23.705Z,7.80
2024-03-19T02:11:54.115Z,8.70
2024-03-19T02:14:24.714Z,9.20
2024-03-19T02:16:55.295Z,9.10
2024-03-19T02:19:25.714Z,8.10
2024-03-19T02:21:56.306Z,8.50
2024-03-19T02:24:26.815Z,8.60
2024-03-19T02:26:57.234Z,11.30
2024-03-19T02:29:27.641Z,13.00
2024-03-19T02:31:57.867Z,14.40
2024-03-19T02:34:28.445Z,14.20
2024-03-19T02:36:59.209Z,16.20
2024-03-19T02:39:29.819Z,20.40
2024-03-19T02:42:00.129Z,34.10
2024-03-19T02:44:30.992Z,36.60
2024-03-19T02:47:01.648Z,34.90
2024-03-19T02:52:01.519Z,50.70
2024-03-19T02:54:31.957Z,53.30
2024-03-19T02:57:02.399Z,60.00
2024-03-19T02:59:32.893Z,54.20
2024-03-19T03:02:03.246Z,74.90
2024-03-19T03:04:33.689Z,98.90
2024-03-19T03:07:04.383Z,79.70
2024-03-19T03:09:34.888Z,37.10
2024-03-19T03:12:07.498Z,31.00
2024-03-19T03:14:37.930Z,14.60
2024-03-19T03:17:08.344Z,11.70
2024-03-19T03:19:38.897Z,10.50
2024-03-19T03:22:09.344Z,9.20
2024-03-19T03:24:39.797Z,8.40
2024-03-19T03:27:10.203Z,9.70
2024-03-19T03:29:41.238Z,10.10
2024-03-19T03:32:11.964Z,8.40
2024-03-19T03:34:42.475Z,10.40
2024-03-19T03:37:15.845Z,9.90
2024-03-19T03:39:49.026Z,9.30
2024-03-19T03:42:19.935Z,9.40
2024-03-19T03:44:50.523Z,9.90
2024-03-19T03:47:21.384Z,10.40
2024-03-19T03:49:51.796Z,10.10
2024-03-19T03:52:22.388Z,11.10
2024-03-19T03:54:53.408Z,10.90
2024-03-19T03:59:52.798Z,10.30
2024-03-19T04:02:23.402Z,11.30
2024-03-19T04:04:55.369Z,12.00
2024-03-19T04:07:25.897Z,11.50
2024-03-19T04:09:56.414Z,11.20
2024-03-19T04:12:27.449Z,11.00
2024-03-19T04:17:29.252Z,10.30
2024-03-19T04:20:01.958Z,11.20
2024-03-19T04:22:32.749Z,11.60
2024-03-19T04:25:03.665Z,10.80
2024-03-19T04:27:34.186Z,11.70
2024-03-19T04:30:05.028Z,15.30
2024-03-19T04:32:35.837Z,19.00
2024-03-19T04:35:07.233Z,16.40
2024-03-19T04:37:37.575Z,15.30
2024-03-19T04:40:10.551Z,13.70
2024-03-19T04:42:41.264Z,14.80
2024-03-19T04:45:13.209Z,15.10
2024-03-19T04:47:44.079Z,15.30
2024-03-19T04:50:14.409Z,15.20
2024-03-19T04:52:44.817Z,14.90
2024-03-19T04:55:15.956Z,14.60
2024-03-19T05:00:19.428Z,14.50
2024-03-19T05:02:49.986Z,15.40
2024-03-19T05:05:20.415Z,15.50
2024-03-19T05:07:50.975Z,15.50
2024-03-19T05:10:21.525Z,15.60
2024-03-19T05:12:52.685Z,13.80
2024-03-19T05:15:23.084Z,15.40
2024-03-19T05:17:53.632Z,16.00
2024-03-19T05:20:24.178Z,14.70
2024-03-19T05:22:54.523Z,15.20
2024-03-19T05:25:24.991Z,16.40
2024-03-19T05:27:55.647Z,17.40
2024-03-19T05:30:27.170Z,18.40
2024-03-19T05:32:57.744Z,20.30
2024-03-19T05:35:28.035Z,18.40
2024-03-19T05:37:58.450Z,19.50
2024-03-19T05:40:28.880Z,18.60
2024-03-19T05:42:59.251Z,19.30
2024-03-19T05:45:29.676Z,21.30
2024-03-19T05:48:00.239Z,22.30
2024-03-19T05:50:31.126Z,22.40
2024-03-19T05:53:02.330Z,20.90
2024-03-19T05:58:01.610Z,20.20
2024-03-19T06:00:32.073Z,21.30
2024-03-19T06:03:02.454Z,21.00
2024-03-19T06:05:39.518Z,19.50
2024-03-19T06:08:31.542Z,19.10
2024-03-19T06:11:02.040Z,20.20
2024-03-19T06:13:34.776Z,17.20
2024-03-19T06:16:08.019Z,18.30
2024-03-19T06:18:39.245Z,17.80
2024-03-19T06:21:09.624Z,17.50
2024-03-19T06:23:40.538Z,17.20
2024-03-19T06:26:11.116Z,16.30
2024-03-19T06:28:41.464Z,16.80
2024-03-19T06:31:12.116Z,17.10
2024-03-19T06:33:42.812Z,16.80
2024-03-19T06:36:13.283Z,16.30
2024-03-19T06:38:43.694Z,16.80
2024-03-19T06:41:14.892Z,18.00
2024-03-19T06:46:14.002Z,16.40
2024-03-19T06:48:44.676Z,16.50
2024-03-19T06:51:15.303Z,16.70
2024-03-19T06:53:46.435Z,17.10
2024-03-19T06:58:48.696Z,15.80
2024-03-19T07:01:19.577Z,13.80
2024-03-19T07:03:56.607Z,14.20
2024-03-19T07:06:33.266Z,14.10
2024-03-19T07:09:03.730Z,14.60
2024-03-19T07:11:34.016Z,13.30
2024-03-19T07:14:05.189Z,13.30
2024-03-19T07:19:04.572Z,13.20
2024-03-19T07:21:35.424Z,12.40
2024-03-19T07:24:07.399Z,12.10
2024-03-19T07:26:37.841Z,12.60
2024-03-19T07:29:08.810Z,12.90
2024-03-19T07:31:39.429Z,15.00
2024-03-19T07:34:09.899Z,13.20
2024-03-19T07:36:41.603Z,12.20
2024-03-19T07:39:12.581Z,10.90
2024-03-19T07:41:43.392Z,12.40
2024-03-19T07:44:13.846Z,12.00
2024-03-19T07:46:45.022Z,13.20
2024-03-19T07:51:44.321Z,10.80
2024-03-19T07:54:14.993Z,11.80
2024-03-19T07:56:45.562Z,11.70
2024-03-19T07:59:16.078Z,11.70
2024-03-19T08:01:46.583Z,10.70
2024-03-19T08:04:17.283Z,11.20
2024-03-19T08:06:47.946Z,10.80
2024-03-19T08:09:19.978Z,11.00
2024-03-19T08:11:50.683Z,10.40
2024-03-19T08:14:24.693Z,10.40
2024-03-19T08:16:55.233Z,11.20
2024-03-19T08:19:25.481Z,10.80
2024-03-19T08:21:55.908Z,10.60
2024-03-19T08:24:26.716Z,10.90
2024-03-19T08:26:57.180Z,10.50
2024-03-19T08:29:28.325Z,10.60
2024-03-19T08:31:58.703Z,10.00
2024-03-19T08:34:29.298Z,10.10
2024-03-19T08:36:59.818Z,9.80
2024-03-19T08:39:30.421Z,9.00
2024-03-19T08:42:05.603Z,9.00
2024-03-19T08:44:36.764Z,8.70
2024-03-19T08:47:07.725Z,8.60
2024-03-19T08:49:38.314Z,8.30
2024-03-19T08:52:10.624Z,8.60
2024-03-19T08:54:41.125Z,7.90
2024-03-19T08:57:32.493Z,7.60
2024-03-19T09:00:02.962Z,7.90
2024-03-19T09:02:33.418Z,8.30
2024-03-19T09:05:04.043Z,8.20
2024-03-19T09:07:35.384Z,11.00
2024-03-19T09:10:08.319Z,8.80
2024-03-19T09:12:39.023Z,8.40
2024-03-19T09:15:11.717Z,7.90
2024-03-19T09:17:42.709Z,8.30
2024-03-19T09:22:43.539Z,8.30
2024-03-19T09:25:14.177Z,6.30
2024-03-19T09:27:44.577Z,6.00
2024-03-19T09:30:17.049Z,5.60
2024-03-19T09:32:47.484Z,5.70
2024-03-19T09:35:18.268Z,5.60
2024-03-19T09:37:48.676Z,5.20
2024-03-19T09:40:19.354Z,4.70
2024-03-19T09:42:51.249Z,4.60
2024-03-19T09:45:28.232Z,5.20
2024-03-19T09:47:58.932Z,4.60
2024-03-19T09:50:29.524Z,5.20
2024-03-19T09:53:00.032Z,5.30
2024-03-19T09:55:30.665Z,5.10
2024-03-19T09:58:02.203Z,5.30
2024-03-19T10:00:33.180Z,6.20
2024-03-19T10:03:03.732Z,4.30
2024-03-19T10:05:41.995Z,4.20
2024-03-19T10:08:14.490Z,4.20
2024-03-19T10:10:48.366Z,3.80
2024-03-19T10:13:18.646Z,4.30
2024-03-19T10:15:53.171Z,4.40
2024-03-19T10:18:24.481Z,4.20
2024-03-19T10:20:59.107Z,4.60
2024-03-19T10:23:31.058Z,4.50
2024-03-19T10:26:01.380Z,5.00
2024-03-19T10:28:31.885Z,4.90
2024-03-19T10:31:02.682Z,5.00
2024-03-19T10:33:34.004Z,4.70
2024-03-19T10:36:05.476Z,4.90
2024-03-19T10:38:37.299Z,5.10
2024-03-19T10:41:19.109Z,5.40
2024-03-19T10:43:51.032Z,5.10
2024-03-19T10:46:22.471Z,4.30
2024-03-19T10:49:03.463Z,4.90
2024-03-19T10:54:04.717Z,4.90
2024-03-19T10:56:36.175Z,4.80
2024-03-19T10:59:09.386Z,4.50
2024-03-19T11:01:47.622Z,4.80
2024-03-19T11:04:23.773Z,4.10
2024-03-19T11:06:57.893Z,4.10
2024-03-19T11:09:30.396Z,4.50
2024-03-19T11:12:02.690Z,4.70
2024-03-19T11:14:34.241Z,4.60
2024-03-19T11:17:17.978Z,4.60
2024-03-19T11:19:55.425Z,5.40
2024-03-19T11:22:26.165Z,5.30
2024-03-19T11:25:00.180Z,4.50
2024-03-19T11:27:36.116Z,5.10
2024-03-19T11:30:17.941Z,4.90
2024-03-19T11:32:49.835Z,5.10
2024-03-19T11:35:22.106Z,4.80
2024-03-19T11:37:53.313Z,5.40
2024-03-19T11:40:24.151Z,5.40
2024-03-19T11:42:54.746Z,5.10
2024-03-19T11:45:26.052Z,5.80
2024-03-19T11:47:58.785Z,7.50
2024-03-19T11:50:29.289Z,7.10
2024-03-19T11:53:01.173Z,6.50
2024-03-19T11:55:33.190Z,6.00
2024-03-19T11:58:03.841Z,6.30
2024-03-19T12:00:34.266Z,6.50
2024-03-19T12:03:06.876Z,7.70
2024-03-19T12:05:37.283Z,6.30
2024-03-19T12:08:15.200Z,6.60
2024-03-19T12:10:46.509Z,6.90
2024-03-19T12:13:18.052Z,5.80
2024-03-19T12:15:48.587Z,5.90
2024-03-19T12:18:19.278Z,6.30
2024-03-19T12:20:50.465Z,7.10
2024-03-19T12:23:20.715Z,6.40
2024-03-19T12:25:51.274Z,6.60
2024-03-19T12:28:21.697Z,6.50
2024-03-19T12:30:53.019Z,6.80
2024-03-19T12:33:26.257Z,6.80
2024-03-19T12:35:58.417Z,6.90
2024-03-19T12:38:30.317Z,6.50
2024-03-19T12:41:00.813Z,6.40
2024-03-19T12:43:31.355Z,7.10
2024-03-19T12:46:01.731Z,6.20
2024-03-19T12:48:32.235Z,7.80
2024-03-19T12:51:02.932Z,6.70
2024-03-19T12:53:33.256Z,6.60
2024-03-19T12:56:03.777Z,6.70
2024-03-19T12:58:34.557Z,7.10
2024-03-19T13:01:05.216Z,6.90
2024-03-19T13:03:35.630Z,7.30
2024-03-19T13:06:06.963Z,7.10
2024-03-19T13:08:39.400Z,6.90
2024-03-19T13:11:10.093Z,7.30
2024-03-19T13:13:40.670Z,6.70
2024-03-19T13:16:11.166Z,7.00
2024-03-19T13:18:42.394Z,7.80
2024-03-19T13:21:12.885Z,7.90
2024-03-19T13:23:43.543Z,7.40
2024-03-19T13:26:17.131Z,6.80
2024-03-19T13:28:47.500Z,6.80
2024-03-19T13:31:19.631Z,7.10
2024-03-19T13:33:53.199Z,6.80
2024-03-19T13:36:23.719Z,5.90
2024-03-19T13:38:56.361Z,7.60
2024-03-19T13:41:26.993Z,7.40
2024-03-19T13:43:58.797Z,7.90
2024-03-19T13:46:29.355Z,7.80
2024-03-19T13:48:59.871Z,7.70
2024-03-19T13:51:32.035Z,8.00
2024-03-19T13:54:05.801Z,7.90
2024-03-19T13:56:36.963Z,8.00
2024-03-19T13:59:08.898Z,8.20
2024-03-19T14:01:39.289Z,8.40
2024-03-19T14:04:12.721Z,7.10
2024-03-19T14:06:43.804Z,7.30
2024-03-19T14:11:43.894Z,7.50
2024-03-19T14:14:14.272Z,7.20
2024-03-19T14:16:44.578Z,7.50
2024-03-19T14:19:15.507Z,7.80
2024-03-19T14:24:14.720Z,7.10
2024-03-19T14:26:45.138Z,8.60
2024-03-19T14:29:35.753Z,8.30
2024-03-19T14:32:09.979Z,7.90
2024-03-19T14:34:40.359Z,7.50
2024-03-19T14:37:10.696Z,8.70
2024-03-19T14:40:01.841Z,6.80
2024-03-19T14:42:32.923Z,8.00
2024-03-19T14:45:03.785Z,7.20
2024-03-19T14:47:34.395Z,8.20
2024-03-19T14:50:05.998Z,8.50
2024-03-19T14:52:36.807Z,8.10
2024-03-19T14:55:11.065Z,8.30
2024-03-19T14:57:42.730Z,8.20
2024-03-19T15:00:15.179Z,7.70
2024-03-19T15:02:46.117Z,8.00
2024-03-19T15:05:16.920Z,7.90
2024-03-19T15:07:47.428Z,8.30
2024-03-19T15:10:18.130Z,9.00
2024-03-19T15:12:49.358Z,8.80
2024-03-19T15:15:20.068Z,8.30
2024-03-19T15:17:50.616Z,8.70
2024-03-19T15:20:20.932Z,8.80
2024-03-19T15:22:51.346Z,9.10
2024-03-19T15:25:23.912Z,9.70
2024-03-19T15:27:54.366Z,8.20
2024-03-19T15:30:25.102Z,8.30
2024-03-19T15:32:55.730Z,8.50
2024-03-19T15:35:26.457Z,8.70
2024-03-19T15:37:56.828Z,8.70
2024-03-19T15:40:27.495Z,9.00
2024-03-19T15:42:57.898Z,8.50
2024-03-19T15:45:30.353Z,8.50
2024-03-19T15:48:03.065Z,8.90
2024-03-19T15:50:33.457Z,9.20
2024-03-19T15:53:04.338Z,9.10
2024-03-19T15:58:04.408Z,8.40
2024-03-19T16:00:34.869Z,8.20
2024-03-19T16:03:07.368Z,8.20
2024-03-19T16:05:38.046Z,8.50
2024-03-19T16:08:15.243Z,9.00
2024-03-19T16:10:45.629Z,9.60
2024-03-19T16:13:16.113Z,11.00
2024-03-19T16:15:46.689Z,11.10
2024-03-19T16:18:17.685Z,10.90
2024-03-19T16:20:47.939Z,9.70
2024-03-19T16:23:18.436Z,11.10
2024-03-19T16:25:49.019Z,10.40
2024-03-19T16:28:20.101Z,9.90
2024-03-19T16:33:19.507Z,8.50
2024-03-19T16:35:49.856Z,10.00
2024-03-19T16:38:20.254Z,10.70
2024-03-19T16:40:50.544Z,11.10
2024-03-19T16:43:21.098Z,15.60
2024-03-19T16:45:52.951Z,20.20
2024-03-19T16:48:23.679Z,29.70
2024-03-19T16:50:54.184Z,37.60
2024-03-19T16:53:24.582Z,45.30
2024-03-19T16:55:55.300Z,45.50
2024-03-19T16:58:27.649Z,35.40
2024-03-19T17:00:58.386Z,25.10
2024-03-19T17:03:28.696Z,20.20
2024-03-19T17:06:02.459Z,19.40
2024-03-19T17:08:33.330Z,17.70
2024-03-19T17:11:04.022Z,15.80
2024-03-19T17:13:38.968Z,15.70
2024-03-19T17:16:11.407Z,15.70
2024-03-19T17:18:42.341Z,18.20
2024-03-19T17:21:12.939Z,17.20
2024-03-19T17:23:43.438Z,17.70
2024-03-19T17:26:16.072Z,18.90
2024-03-19T17:28:46.476Z,20.00
2024-03-19T17:31:16.953Z,18.80
2024-03-19T17:33:47.524Z,19.00
2024-03-19T17:36:18.367Z,19.80
2024-03-19T17:38:49.501Z,20.70
2024-03-19T17:41:20.304Z,21.40
2024-03-19T17:43:50.671Z,21.70
2024-03-19T17:46:20.992Z,21.00
2024-03-19T17:48:54.788Z,21.40
2024-03-19T17:51:25.335Z,22.60
2024-03-19T17:53:56.262Z,24.70
2024-03-19T17:56:26.892Z,28.10
2024-03-19T17:58:57.501Z,33.80
2024-03-19T18:01:27.850Z,34.20
2024-03-19T18:03:58.234Z,34.90
2024-03-19T18:06:29.494Z,32.10
2024-03-19T18:09:00.895Z,29.50
2024-03-19T18:11:31.793Z,26.30
2024-03-19T18:14:02.309Z,26.90
2024-03-19T18:16:33.483Z,31.10
2024-03-19T18:19:03.972Z,32.10
2024-03-19T18:21:37.361Z,34.30
2024-03-19T18:24:09.508Z,33.10
2024-03-19T18:26:39.920Z,32.30
2024-03-19T18:29:10.642Z,32.40
2024-03-19T18:31:44.628Z,32.60
2024-03-19T18:34:15.439Z,36.80
2024-03-19T18:36:46.304Z,36.80
2024-03-19T18:39:17.455Z,37.60
2024-03-19T18:41:48.009Z,47.60
2024-03-19T18:44:18.840Z,107.50
2024-03-19T18:46:49.633Z,127.70
2024-03-19T18:49:20.051Z,120.40
2024-03-19T18:51:50.395Z,106.20
2024-03-19T18:54:20.903Z,116.90
2024-03-19T18:56:51.366Z,119.80
2024-03-19T18:59:21.705Z,115.70
2024-03-19T19:01:51.989Z,111.50
2024-03-19T19:04:22.874Z,94.50
2024-03-19T19:06:53.721Z,94.60
2024-03-19T19:09:24.276Z,100.20
2024-03-19T19:11:54.699Z,90.10
2024-03-19T19:14:25.089Z,79.30
2024-03-19T19:16:55.430Z,68.50
2024-03-19T19:19:25.732Z,69.20
2024-03-19T19:22:01.965Z,69.00
2024-03-19T19:24:32.384Z,80.00
2024-03-19T19:27:02.832Z,66.70
2024-03-19T19:29:33.600Z,70.90
2024-03-19T19:32:04.162Z,65.60
2024-03-19T19:34:34.588Z,62.00
2024-03-19T19:37:05.354Z,77.80
2024-03-19T19:39:35.855Z,116.70
2024-03-19T19:42:07.143Z,137.20
2024-03-19T19:44:37.524Z,147.30
2024-03-19T19:47:09.653Z,167.30
2024-03-19T19:49:40.167Z,183.30
2024-03-19T19:52:11.062Z,209.00
2024-03-19T19:54:41.883Z,212.60
2024-03-19T19:57:12.681Z,181.80
2024-03-19T19:59:43.241Z,165.50
2024-03-19T20:02:17.520Z,150.60
2024-03-19T20:04:48.402Z,149.40
2024-03-19T20:07:19.054Z,153.10
2024-03-19T20:09:49.400Z,147.90
2024-03-19T20:12:19.797Z,142.20
2024-03-19T20:14:50.244Z,135.00
2024-03-19T20:17:20.724Z,133.70
2024-03-19T20:19:51.166Z,125.90
2024-03-19T20:22:21.510Z,120.20
2024-03-19T20:24:57.104Z,120.80
2024-03-19T20:27:34.477Z,112.20
2024-03-19T20:30:08.197Z,110.70
2024-03-19T20:32:38.726Z,109.20
2024-03-19T20:35:11.763Z,112.60
2024-03-19T20:37:42.356Z,118.40
2024-03-19T20:40:16.119Z,121.10
2024-03-19T20:42:47.552Z,110.60
2024-03-19T20:45:17.996Z,100.20
2024-03-19T20:47:49.292Z,96.40
2024-03-19T20:52:48.602Z,100.40
2024-03-19T20:55:19.042Z,104.10
2024-03-19T20:57:49.631Z,102.20
2024-03-19T21:00:21.771Z,104.00
2024-03-19T21:02:52.103Z,99.90
2024-03-19T21:05:22.551Z,101.30
2024-03-19T21:07:53.077Z,99.30
2024-03-19T21:10:23.617Z,98.90
2024-03-19T21:12:54.110Z,89.50
2024-03-19T21:15:25.179Z,93.80
2024-03-19T21:20:24.790Z,85.80
2024-03-19T21:22:55.185Z,93.00
2024-03-19T21:25:25.860Z,95.20
2024-03-19T21:27:56.307Z,91.90
2024-03-19T21:30:27.220Z,83.40
2024-03-19T21:32:57.716Z,80.60
2024-03-19T21:35:28.042Z,73.40
2024-03-19T21:37:58.657Z,73.80
2024-03-19T21:40:31.262Z,69.70
2024-03-19T21:43:01.697Z,69.90
2024-03-19T21:45:32.214Z,69.80
2024-03-19T21:48:03.038Z,95.90
2024-03-19T21:50:33.641Z,117.80
2024-03-19T21:53:04.306Z,131.10
2024-03-19T21:55:34.789Z,120.70
2024-03-19T21:58:05.687Z,107.10
2024-03-19T22:00:36.247Z,127.20
2024-03-19T22:03:08.483Z,127.10
2024-03-19T22:05:39.723Z,139.70
2024-03-19T22:08:14.782Z,140.50
2024-03-19T22:10:47.629Z,135.50
2024-03-19T22:13:18.461Z,145.10
2024-03-19T22:15:55.564Z,139.60
2024-03-19T22:18:25.871Z,139.40
2024-03-19T22:20:56.271Z,140.00
2024-03-19T22:23:26.702Z,135.60
2024-03-19T22:25:57.131Z,128.90
2024-03-19T22:28:27.722Z,132.30
2024-03-19T22:30:58.093Z,134.40
2024-03-19T22:33:28.928Z,133.80
2024-03-19T22:36:00.558Z,117.20
2024-03-19T22:38:31.000Z,117.70
2024-03-19T22:41:01.618Z,119.60
2024-03-19T22:43:31.906Z,108.50
2024-03-19T22:46:02.441Z,111.40
2024-03-19T22:48:32.767Z,107.90
2024-03-19T22:51:03.246Z,104.30
2024-03-19T22:53:33.514Z,98.00
2024-03-19T22:56:04.044Z,92.80
2024-03-19T22:58:34.710Z,88.80
2024-03-19T23:02:57.209Z,83.90
2024-03-19T23:05:33.833Z,83.00
2024-03-19T23:08:04.486Z,80.60
2024-03-19T23:10:34.921Z,81.90
2024-03-19T23:13:06.817Z,72.40
2024-03-19T23:15:38.533Z,75.00
2024-03-19T23:18:09.247Z,73.90
2024-03-19T23:20:39.672Z,72.10
2024-03-19T23:23:10.117Z,70.80
2024-03-19T23:25:40.618Z,75.10
2024-03-19T23:28:11.084Z,68.20
2024-03-19T23:30:41.903Z,66.30
2024-03-19T23:33:12.495Z,70.00
2024-03-19T23:35:43.264Z,60.10
2024-03-19T23:38:13.754Z,53.60
2024-03-19T23:40:44.007Z,51.10
2024-03-19T23:43:14.567Z,54.90
2024-03-19T23:45:45.398Z,54.50
2024-03-19T23:48:15.939Z,54.40
2024-03-19T23:50:46.358Z,56.10
2024-03-19T23:53:16.915Z,59.50
2024-03-19T23:55:47.834Z,57.10
2024-03-19T23:58:18.193Z,53.20
